Time;durP1;ratioP1;P1;durP2;ratioP2;P2;SDS_P1;SDS_P2;PMS_P1;PMS_P2;Temp;Humidity;BMP_temperature;BMP_pressure;BME280_temperature;BME280_humidity;BME280_pressure;Samples;Min_cycle;Max_cycle;Signal;HPM_P1;HPM_P2
2022/01/20 00:00:02;;;;;;;5.13;4.50;;;4.40;99.90;;;;;;5020363;28;20459;-81
2022/01/20 00:02:55;;;;;;;6.17;4.00;;;4.40;99.90;;;;;;5021048;28;20401;-81
2022/01/20 00:26:46;;;;;;;5.53;3.33;;;4.40;99.90;;;;;;5032200;28;20418;-80
2022/01/20 00:29:34;;;;;;;3.80;3.13;;;4.20;99.90;;;;;;5032448;28;20859;-80
2022/01/20 00:32:21;;;;;;;5.20;4.10;;;4.30;99.90;;;;;;5032754;28;20485;-80
2022/01/20 00:35:20;;;;;;;4.03;3.67;;;4.20;99.90;;;;;;5031254;28;20375;-80
2022/01/20 00:38:04;;;;;;;4.93;3.57;;;4.10;99.90;;;;;;5032526;28;20366;-81
2022/01/20 00:40:51;;;;;;;4.17;3.73;;;4.10;99.90;;;;;;5032027;28;20777;-81
2022/01/20 00:43:35;;;;;;;5.17;3.83;;;4.10;99.90;;;;;;5032582;28;20762;-79
2022/01/20 00:46:20;;;;;;;4.80;3.47;;;4.20;99.90;;;;;;5031974;28;20389;-80
2022/01/20 00:49:05;;;;;;;3.27;3.03;;;4.20;99.90;;;;;;5016171;28;20367;-80
2022/01/20 00:51:50;;;;;;;3.57;3.23;;;4.20;99.90;;;;;;5034145;28;20394;-81
2022/01/20 00:54:35;;;;;;;4.57;3.00;;;4.20;99.90;;;;;;5035035;28;20411;-80
2022/01/20 00:57:20;;;;;;;3.27;3.00;;;4.20;99.90;;;;;;5029817;28;20359;-79
2022/01/20 01:00:08;;;;;;;3.87;3.53;;;4.30;99.90;;;;;;5027553;28;20432;-80
2022/01/20 01:02:53;;;;;;;3.73;3.07;;;4.30;99.90;;;;;;5025703;28;20362;-80
2022/01/20 01:05:47;;;;;;;4.27;3.87;;;4.10;99.90;;;;;;5006566;28;20370;-81
2022/01/20 01:08:32;;;;;;;2.77;2.53;;;4.00;99.90;;;;;;5007377;28;20495;-80
2022/01/20 01:11:18;;;;;;;3.07;2.87;;;4.10;99.90;;;;;;5019285;28;20366;-79
2022/01/20 01:14:05;;;;;;;4.30;3.83;;;4.10;99.90;;;;;;5020052;28;20366;-80
2022/01/20 01:22:57;;;;;;;4.23;2.80;;;4.30;99.90;;;;;;5018386;28;20409;-79
2022/01/20 01:25:41;;;;;;;3.90;3.50;;;4.30;99.90;;;;;;5019169;28;20661;-79
2022/01/20 01:28:29;;;;;;;3.33;2.47;;;4.20;99.90;;;;;;5018295;28;20526;-80
2022/01/20 01:34:22;;;;;;;3.47;3.00;;;4.40;99.90;;;;;;5018992;28;20359;-78
2022/01/20 01:37:23;;;;;;;3.40;3.20;;;4.40;99.90;;;;;;5019654;28;20459;-80
2022/01/20 01:40:12;;;;;;;3.17;2.87;;;4.40;99.90;;;;;;5018780;28;20366;-78
2022/01/20 01:42:58;;;;;;;2.70;2.50;;;4.40;99.90;;;;;;5019206;28;20502;-79
2022/01/20 01:45:42;;;;;;;3.43;3.13;;;4.40;99.90;;;;;;5020183;28;20366;-80
2022/01/20 01:48:28;;;;;;;4.60;3.73;;;4.40;99.90;;;;;;5018299;28;20480;-80
2022/01/20 01:51:13;;;;;;;2.87;2.67;;;4.40;99.90;;;;;;5018534;28;20370;-80
2022/01/20 01:53:58;;;;;;;5.00;3.50;;;4.50;99.90;;;;;;5018315;28;20762;-80
2022/01/20 01:56:44;;;;;;;4.87;3.80;;;4.60;99.90;;;;;;5018201;28;20358;-80
2022/01/20 01:59:29;;;;;;;2.60;2.40;;;4.40;99.90;;;;;;5017102;28;20453;-80
2022/01/20 02:02:13;;;;;;;2.83;2.63;;;4.40;99.90;;;;;;5003494;28;20382;-80
2022/01/20 02:04:58;;;;;;;5.07;2.60;;;4.40;99.90;;;;;;5018236;28;20350;-80
2022/01/20 02:19:44;;;;;;;2.60;2.40;;;4.50;99.90;;;;;;5024440;28;20390;-78
2022/01/20 02:22:28;;;;;;;2.90;2.50;;;4.50;99.90;;;;;;5037094;28;20445;-79
2022/01/20 02:25:23;;;;;;;3.10;2.20;;;4.50;99.90;;;;;;5030248;28;20423;-81
2022/01/20 02:28:10;;;;;;;2.70;2.50;;;4.50;99.90;;;;;;5017832;28;20490;-81
2022/01/20 02:30:55;;;;;;;4.13;3.03;;;4.60;99.90;;;;;;5003492;28;20463;-80
2022/01/20 02:33:40;;;;;;;2.00;1.90;;;4.60;99.90;;;;;;5018395;28;20398;-81
2022/01/20 02:36:25;;;;;;;8.43;3.30;;;4.50;99.90;;;;;;5017920;28;20802;-80
2022/01/20 02:39:44;;;;;;;3.27;2.83;;;4.50;99.90;;;;;;5018094;28;20880;-81
2022/01/20 02:45:14;;;;;;;3.70;2.47;;;4.40;99.90;;;;;;5017677;28;20454;-81
2022/01/20 02:47:58;;;;;;;2.53;2.23;;;4.40;99.90;;;;;;5018068;28;20457;-81
2022/01/20 02:50:42;;;;;;;2.40;2.20;;;4.50;99.90;;;;;;5003022;28;20406;-81
2022/01/20 02:53:27;;;;;;;4.27;2.53;;;4.50;99.90;;;;;;5018052;28;20402;-81
2022/01/20 02:56:12;;;;;;;4.77;2.73;;;4.50;99.90;;;;;;5003056;28;20353;-81
2022/01/20 02:58:56;;;;;;;2.40;2.20;;;4.40;99.90;;;;;;5017948;28;20361;-81
2022/01/20 03:01:41;;;;;;;2.10;2.00;;;4.50;99.90;;;;;;5017518;28;20453;-81
2022/01/20 03:04:26;;;;;;;2.97;2.77;;;4.50;99.90;;;;;;5018263;28;20446;-81
2022/01/20 03:07:11;;;;;;;3.00;2.70;;;4.20;99.90;;;;;;5018722;28;20410;-81
2022/01/20 03:09:56;;;;;;;3.13;2.87;;;4.30;99.90;;;;;;5011336;28;20441;-78
2022/01/20 03:12:40;;;;;;;3.40;2.60;;;4.40;99.90;;;;;;5018495;28;20362;-79
2022/01/20 03:15:25;;;;;;;2.83;2.63;;;4.50;99.90;;;;;;5023286;28;20370;-80
2022/01/20 03:18:10;;;;;;;2.43;2.23;;;4.50;99.90;;;;;;5023787;28;20434;-80
2022/01/20 03:20:54;;;;;;;2.27;2.07;;;4.50;99.90;;;;;;5023407;28;20409;-80
2022/01/20 03:23:39;;;;;;;2.10;2.00;;;4.40;99.90;;;;;;5023072;28;20383;-80
2022/01/20 03:26:23;;;;;;;2.20;2.00;;;4.50;99.90;;;;;;5008365;28;20426;-79
2022/01/20 03:29:10;;;;;;;1.97;1.83;;;4.60;99.90;;;;;;5022827;28;20438;-80
2022/01/20 03:31:54;;;;;;;2.90;2.37;;;4.50;99.90;;;;;;5022187;28;20403;-78
2022/01/20 03:34:39;;;;;;;1.97;1.80;;;4.40;99.90;;;;;;5022981;28;20358;-80
2022/01/20 03:37:23;;;;;;;2.13;2.03;;;4.40;99.90;;;;;;5022757;28;20370;-80
2022/01/20 03:40:09;;;;;;;2.73;2.53;;;4.40;99.90;;;;;;5022928;28;20730;-80
2022/01/20 03:42:54;;;;;;;2.47;2.27;;;4.50;99.90;;;;;;5023398;28;20466;-79
2022/01/20 03:45:39;;;;;;;1.93;1.80;;;4.60;99.90;;;;;;5023113;28;20789;-80
2022/01/20 03:48:27;;;;;;;2.20;2.07;;;4.50;99.90;;;;;;5008258;28;20441;-78
2022/01/20 03:51:11;;;;;;;2.20;2.03;;;4.40;99.90;;;;;;5031444;28;20366;-81
2022/01/20 03:53:56;;;;;;;3.27;2.40;;;4.40;99.90;;;;;;5042379;28;20419;-81
2022/01/20 03:56:41;;;;;;;2.87;2.57;;;4.40;99.90;;;;;;5001102;28;20379;-81
2022/01/20 03:59:25;;;;;;;2.27;2.17;;;4.40;99.90;;;;;;5027883;28;20479;-81
2022/01/20 04:02:10;;;;;;;4.70;2.40;;;4.30;99.90;;;;;;5042302;28;20358;-79
2022/01/20 04:04:55;;;;;;;2.70;2.50;;;4.40;99.90;;;;;;5029517;28;20396;-80
2022/01/20 04:07:39;;;;;;;3.07;2.87;;;4.40;99.90;;;;;;5024736;28;20435;-81
2022/01/20 04:10:24;;;;;;;6.63;2.83;;;4.50;99.90;;;;;;5009795;28;20393;-81
2022/01/20 04:13:10;;;;;;;2.90;2.50;;;4.40;99.90;;;;;;5023872;28;20354;-80
2022/01/20 04:15:54;;;;;;;2.83;2.63;;;4.40;99.90;;;;;;5024692;28;20472;-80
2022/01/20 04:18:51;;;;;;;2.73;2.53;;;4.30;99.90;;;;;;5024274;28;20711;-81
2022/01/20 04:21:37;;;;;;;2.83;2.63;;;4.40;99.90;;;;;;5022143;28;20397;-80
2022/01/20 04:24:21;;;;;;;4.07;2.47;;;4.50;99.90;;;;;;5021129;28;20535;-81
2022/01/20 04:27:06;;;;;;;3.40;3.10;;;4.60;99.90;;;;;;5008666;28;20409;-81
2022/01/20 04:29:51;;;;;;;3.10;2.80;;;4.60;99.90;;;;;;5025225;28;20421;-81
2022/01/20 04:32:36;;;;;;;2.93;2.63;;;4.40;99.90;;;;;;5026304;28;20722;-81
2022/01/20 04:35:20;;;;;;;3.30;3.00;;;4.30;99.90;;;;;;5025643;28;20378;-81
2022/01/20 04:38:06;;;;;;;3.30;3.00;;;4.30;99.90;;;;;;5025715;28;20371;-80
2022/01/20 04:40:51;;;;;;;3.90;2.43;;;4.30;99.90;;;;;;5026396;28;20366;-81
2022/01/20 04:43:36;;;;;;;3.67;3.30;;;4.20;99.90;;;;;;5020325;28;20362;-81
2022/01/20 04:46:34;;;;;;;2.60;2.30;;;4.20;99.90;;;;;;5017286;28;20415;-80
2022/01/20 04:58:15;;;;;;;2.90;2.43;;;4.20;99.90;;;;;;4999815;28;20482;-80
2022/01/20 05:01:02;;;;;;;2.23;2.03;;;4.20;99.90;;;;;;5000292;28;20427;-80
2022/01/20 05:03:46;;;;;;;3.30;2.33;;;4.20;99.90;;;;;;4986676;28;20402;-81
2022/01/20 05:06:31;;;;;;;3.17;2.97;;;4.00;99.90;;;;;;5001525;28;20385;-80
2022/01/20 05:09:19;;;;;;;3.63;2.60;;;4.10;99.90;;;;;;5019173;28;20730;-80
2022/01/20 05:12:08;;;;;;;6.17;3.20;;;4.10;99.90;;;;;;5019860;28;20391;-80
2022/01/20 05:14:54;;;;;;;5.00;3.23;;;4.20;99.90;;;;;;5019418;28;20434;-80
2022/01/20 05:17:39;;;;;;;3.23;2.93;;;4.20;99.90;;;;;;5004653;28;20931;-80
2022/01/20 05:20:25;;;;;;;14.10;2.90;;;4.20;99.90;;;;;;5019254;28;20367;-80
2022/01/20 05:23:09;;;;;;;2.33;2.10;;;4.20;99.90;;;;;;5019473;28;20565;-80
2022/01/20 05:25:54;;;;;;;4.30;3.37;;;4.20;99.90;;;;;;5019948;28;20417;-80
2022/01/20 05:28:38;;;;;;;5.87;2.83;;;4.20;99.90;;;;;;5019467;28;20417;-80
2022/01/20 05:31:23;;;;;;;3.63;2.60;;;4.20;99.90;;;;;;5019802;28;20395;-80
2022/01/20 05:34:08;;;;;;;5.00;2.77;;;4.10;99.90;;;;;;5018100;28;20355;-80
2022/01/20 05:36:52;;;;;;;6.60;2.57;;;4.10;99.90;;;;;;5018996;28;20413;-80
2022/01/20 05:39:37;;;;;;;3.20;2.20;;;4.20;99.90;;;;;;5019700;28;20440;-80
2022/01/20 05:42:21;;;;;;;2.70;2.50;;;4.20;99.90;;;;;;5019122;28;20408;-80
2022/01/20 05:45:07;;;;;;;5.40;2.97;;;4.30;99.90;;;;;;5019442;28;20492;-80
2022/01/20 05:48:00;;;;;;;4.70;3.00;;;4.30;99.90;;;;;;5004052;28;20410;-81
2022/01/20 05:50:44;;;;;;;3.43;2.93;;;4.30;99.90;;;;;;5018803;28;20421;-81
2022/01/20 05:53:30;;;;;;;4.40;3.10;;;4.30;99.90;;;;;;5019130;28;20737;-80
2022/01/20 05:56:14;;;;;;;4.73;3.10;;;4.40;99.90;;;;;;5018988;28;20396;-80
2022/01/20 05:58:59;;;;;;;3.47;3.03;;;4.40;99.90;;;;;;5019502;28;20730;-80
2022/01/20 06:01:51;;;;;;;7.93;3.10;;;4.40;99.90;;;;;;5018015;28;20463;-80
2022/01/20 06:04:36;;;;;;;16.23;3.47;;;4.40;99.90;;;;;;5018979;28;20451;-80
2022/01/20 06:07:21;;;;;;;7.37;3.27;;;4.30;99.90;;;;;;5003866;28;20429;-80
2022/01/20 06:10:08;;;;;;;6.00;2.87;;;4.40;99.90;;;;;;5018462;28;20398;-81
2022/01/20 06:12:52;;;;;;;11.83;3.20;;;4.30;99.90;;;;;;5007684;28;20390;-80
2022/01/20 06:15:37;;;;;;;4.93;2.43;;;4.40;99.90;;;;;;5019010;28;20386;-81
2022/01/20 06:18:22;;;;;;;3.83;3.37;;;4.40;99.90;;;;;;5031243;28;20358;-80
2022/01/20 06:21:08;;;;;;;2.70;2.50;;;4.40;99.90;;;;;;5026547;28;20406;-80
2022/01/20 06:23:53;;;;;;;2.73;2.53;;;4.40;99.90;;;;;;5014515;28;20491;-81
2022/01/20 06:26:37;;;;;;;3.23;2.87;;;4.30;99.90;;;;;;5013646;28;20402;-80
2022/01/20 06:29:23;;;;;;;4.40;3.00;;;4.40;99.90;;;;;;5022229;28;20410;-81
2022/01/20 06:32:09;;;;;;;3.20;2.47;;;4.40;99.90;;;;;;4990135;28;20430;-80
2022/01/20 06:34:53;;;;;;;5.63;2.80;;;4.50;99.90;;;;;;5010604;28;20402;-81
2022/01/20 06:37:38;;;;;;;11.33;3.60;;;4.50;99.90;;;;;;5015183;28;20447;-80
2022/01/20 06:40:22;;;;;;;21.40;4.00;;;4.40;99.90;;;;;;4978533;28;20471;-81
2022/01/20 06:43:07;;;;;;;7.70;3.90;;;4.30;99.90;;;;;;5013712;28;20524;-81
2022/01/20 06:45:52;;;;;;;8.90;3.70;;;4.40;99.90;;;;;;5016231;28;20389;-81
2022/01/20 06:48:37;;;;;;;3.97;3.23;;;4.40;99.90;;;;;;4973376;28;20961;-80
2022/01/20 06:51:22;;;;;;;9.70;4.07;;;4.40;99.90;;;;;;5015362;28;20427;-81
2022/01/20 06:54:06;;;;;;;2.67;2.47;;;4.30;99.90;;;;;;5014585;28;20751;-80
2022/01/20 06:56:50;;;;;;;4.80;3.37;;;4.20;99.90;;;;;;4988698;28;20403;-80
2022/01/20 06:59:35;;;;;;;3.87;3.50;;;4.30;99.90;;;;;;5020108;28;20963;-80
2022/01/20 07:02:20;;;;;;;3.90;3.33;;;4.30;99.90;;;;;;5006611;28;20993;-80
2022/01/20 07:05:06;;;;;;;9.53;3.67;;;4.10;99.90;;;;;;4986289;28;20508;-79
2022/01/20 07:07:51;;;;;;;5.70;4.03;;;4.20;99.90;;;;;;4991139;28;20434;-80
2022/01/20 07:10:35;;;;;;;7.93;3.40;;;4.20;99.90;;;;;;4972281;28;20411;-80
2022/01/20 07:13:19;;;;;;;7.03;6.40;;;4.30;99.90;;;;;;4990787;28;20915;-80
2022/01/20 07:16:04;;;;;;;3.40;2.70;;;4.20;99.90;;;;;;4991801;28;20467;-81
2022/01/20 07:18:51;;;;;;;4.50;3.90;;;4.10;99.90;;;;;;4993706;28;20524;-78
2022/01/20 07:21:36;;;;;;;7.73;3.77;;;4.20;99.90;;;;;;4987899;28;20530;-82
2022/01/20 07:24:40;;;;;;;19.20;3.03;;;4.20;99.90;;;;;;4971759;28;20428;-81
2022/01/20 07:27:28;;;;;;;7.60;4.00;;;4.30;99.90;;;;;;4951240;28;20445;-81
2022/01/20 07:30:12;;;;;;;11.73;3.80;;;4.20;99.90;;;;;;4974240;28;20536;-81
2022/01/20 07:32:58;;;;;;;9.97;4.40;;;4.30;99.90;;;;;;4971091;28;20495;-81
2022/01/20 07:36:03;;;;;;;3.27;2.70;;;4.30;99.90;;;;;;4983894;28;20399;-81
2022/01/20 07:38:48;;;;;;;10.63;4.23;;;4.40;99.90;;;;;;4962474;29;20493;-79
2022/01/20 07:41:33;;;;;;;3.13;2.60;;;4.40;99.90;;;;;;4967562;29;20420;-80
2022/01/20 07:44:19;;;;;;;5.50;4.60;;;4.30;99.90;;;;;;4956731;29;20405;-79
2022/01/20 07:47:04;;;;;;;10.33;3.80;;;4.30;99.90;;;;;;4966714;28;20459;-79
2022/01/20 07:49:49;;;;;;;7.10;3.83;;;4.30;99.90;;;;;;4947541;28;20505;-82
2022/01/20 07:52:33;;;;;;;7.50;3.90;;;4.30;99.90;;;;;;4953729;28;20946;-82
2022/01/20 07:55:18;;;;;;;7.80;3.53;;;4.40;99.90;;;;;;4934060;29;20434;-82
2022/01/20 07:58:03;;;;;;;19.00;3.63;;;4.40;99.90;;;;;;4947419;28;20456;-81
2022/01/20 08:00:47;;;;;;;6.43;2.90;;;4.40;99.90;;;;;;4937481;28;20495;-82
2022/01/20 08:03:32;;;;;;;5.10;2.50;;;4.40;99.90;;;;;;4950195;28;20812;-80
2022/01/20 08:06:17;;;;;;;4.70;3.13;;;4.40;99.90;;;;;;4957024;28;20522;-81
2022/01/20 08:09:01;;;;;;;5.93;3.80;;;4.50;99.90;;;;;;4975358;28;20529;-81
2022/01/20 08:11:46;;;;;;;3.13;2.70;;;4.60;99.90;;;;;;5011986;28;20470;-81
2022/01/20 08:14:31;;;;;;;3.20;2.40;;;4.60;99.90;;;;;;5010357;28;20385;-82
2022/01/20 08:17:16;;;;;;;7.50;4.10;;;4.70;99.90;;;;;;5000344;28;20621;-82
2022/01/20 08:20:00;;;;;;;4.43;2.90;;;4.60;99.90;;;;;;5014766;28;20397;-82
2022/01/20 08:22:45;;;;;;;19.97;4.40;;;4.70;99.90;;;;;;5020991;28;20438;-79
2022/01/20 08:25:30;;;;;;;2.70;2.50;;;4.80;99.90;;;;;;5000249;28;20411;-79
2022/01/20 08:28:14;;;;;;;6.07;2.93;;;4.80;99.90;;;;;;5026801;28;20455;-79
2022/01/20 08:30:58;;;;;;;5.00;4.57;;;4.60;99.90;;;;;;5011963;28;20467;-79
2022/01/20 08:33:43;;;;;;;6.17;3.27;;;4.60;99.90;;;;;;5024199;28;20386;-79
2022/01/20 08:36:28;;;;;;;4.50;2.60;;;4.60;99.90;;;;;;5024458;28;20406;-79
2022/01/20 08:39:43;;;;;;;3.63;2.90;;;5.10;99.90;;;;;;5031420;28;20860;-79
2022/01/20 08:42:17;;;;;;;10.53;3.07;;;5.40;99.90;;;;;;5015509;28;20514;-79
2022/01/20 08:45:02;;;;;;;9.20;4.33;;;5.80;99.90;;;;;;5012606;28;20431;-79
2022/01/20 08:47:46;;;;;;;8.80;3.13;;;5.90;99.90;;;;;;5008905;28;20518;-78
2022/01/20 08:50:32;;;;;;;3.80;3.50;;;6.30;99.90;;;;;;5025698;28;20455;-80
2022/01/20 08:53:17;;;;;;;5.22;2.72;;;6.40;99.90;;;;;;5008261;28;20418;-78
2022/01/20 08:56:04;;;;;;;9.70;3.93;;;6.60;99.90;;;;;;5008587;28;20181;-79
2022/01/20 08:58:48;;;;;;;15.63;4.17;;;6.80;99.90;;;;;;5028920;28;20443;-78
2022/01/20 09:01:34;;;;;;;10.00;3.50;;;6.70;99.90;;;;;;5005695;28;20471;-79
2022/01/20 09:04:19;;;;;;;9.97;3.50;;;6.40;99.90;;;;;;5030439;28;20377;-79
2022/01/20 09:07:03;;;;;;;5.00;2.83;;;6.10;99.90;;;;;;5002943;28;20933;-80
2022/01/20 09:09:49;;;;;;;8.93;3.73;;;5.90;99.90;;;;;;4999785;28;20419;-79
2022/01/20 09:15:40;;;;;;;4.37;3.43;;;5.60;99.90;;;;;;5014550;28;20443;-83
2022/01/20 09:18:25;;;;;;;5.40;2.30;;;5.40;99.90;;;;;;5031923;28;20397;-82
2022/01/20 09:21:10;;;;;;;8.37;2.60;;;5.60;99.90;;;;;;4990695;28;20531;-82
2022/01/20 09:23:55;;;;;;;3.63;3.27;;;5.90;99.90;;;;;;5027016;28;20390;-83
2022/01/20 09:26:40;;;;;;;8.23;3.73;;;5.80;99.90;;;;;;5033081;28;20430;-80
2022/01/20 09:29:25;;;;;;;5.57;2.27;;;5.70;99.90;;;;;;5029220;28;20424;-79
2022/01/20 09:32:12;;;;;;;10.13;3.57;;;6.20;99.90;;;;;;5033971;28;20426;-79
2022/01/20 09:34:57;;;;;;;3.43;2.33;;;6.90;99.90;;;;;;5029064;28;20425;-79
2022/01/20 09:37:42;;;;;;;5.33;3.57;;;6.60;99.90;;;;;;5030714;28;20412;-79
2022/01/20 09:40:30;;;;;;;4.33;3.17;;;6.50;99.90;;;;;;5021765;28;20462;-79
2022/01/20 09:43:15;;;;;;;6.53;2.60;;;6.20;99.90;;;;;;5029134;28;20399;-79
2022/01/20 09:46:01;;;;;;;2.40;1.33;;;5.60;99.90;;;;;;5026575;28;20424;-79
2022/01/20 09:48:46;;;;;;;1.50;1.40;;;5.10;99.90;;;;;;5014538;28;20438;-79
2022/01/20 09:51:30;;;;;;;3.00;1.80;;;4.90;99.90;;;;;;5012006;28;20467;-79
2022/01/20 09:54:15;;;;;;;2.13;1.33;;;4.60;99.90;;;;;;5013530;28;20429;-79
2022/01/20 09:57:00;;;;;;;2.57;1.80;;;4.30;99.90;;;;;;5016664;28;20406;-79
2022/01/20 09:59:46;;;;;;;2.70;2.17;;;4.20;99.90;;;;;;4998783;28;20518;-79
2022/01/20 10:02:31;;;;;;;1.70;1.60;;;4.00;99.90;;;;;;4959892;28;20390;-79
2022/01/20 10:05:30;;;;;;;3.30;1.63;;;4.00;99.90;;;;;;4978487;28;20427;-80
2022/01/20 10:08:21;;;;;;;1.30;1.20;;;3.90;99.90;;;;;;4966737;28;20478;-81
2022/01/20 10:11:09;;;;;;;8.33;2.33;;;3.90;99.90;;;;;;4974101;28;20403;-81
2022/01/20 10:13:59;;;;;;;3.27;1.90;;;3.90;99.90;;;;;;4970429;28;20424;-80
2022/01/20 10:16:44;;;;;;;3.27;2.40;;;3.90;99.90;;;;;;4978660;28;20500;-81
2022/01/20 10:19:29;;;;;;;1.97;1.87;;;3.80;99.90;;;;;;4964633;28;20510;-81
2022/01/20 10:22:15;;;;;;;2.33;1.60;;;3.80;99.90;;;;;;4970774;28;20438;-80
2022/01/20 10:25:04;;;;;;;1.50;1.40;;;3.90;99.90;;;;;;4980115;28;20438;-80
2022/01/20 10:27:52;;;;;;;1.30;1.20;;;3.90;99.90;;;;;;4962572;28;20463;-82
2022/01/20 10:30:37;;;;;;;6.97;3.83;;;3.90;99.90;;;;;;4987229;28;20383;-80
2022/01/20 10:33:22;;;;;;;10.13;4.07;;;3.80;99.90;;;;;;4972576;28;20472;-81
2022/01/20 10:36:09;;;;;;;3.10;1.63;;;3.80;99.90;;;;;;4982088;28;20425;-80
2022/01/20 10:38:58;;;;;;;3.40;2.07;;;3.90;99.90;;;;;;4978067;28;20450;-80
2022/01/20 10:41:43;;;;;;;3.30;2.70;;;3.90;99.90;;;;;;4960290;28;20472;-81
2022/01/20 10:44:28;;;;;;;2.87;1.77;;;3.90;99.90;;;;;;4993618;28;20420;-81
2022/01/20 10:47:28;;;;;;;5.13;2.57;;;3.90;99.90;;;;;;4980949;28;20836;-80
2022/01/20 10:50:16;;;;;;;2.73;1.67;;;4.00;99.90;;;;;;4990180;28;20419;-80
2022/01/20 10:53:01;;;;;;;3.23;2.10;;;4.30;99.90;;;;;;4976843;28;20475;-81
2022/01/20 10:55:45;;;;;;;1.80;1.70;;;4.50;99.90;;;;;;4992839;28;20413;-81
2022/01/20 10:58:31;;;;;;;2.40;2.20;;;4.60;99.90;;;;;;4979971;28;20414;-80
2022/01/20 11:01:17;;;;;;;5.57;2.20;;;5.20;99.90;;;;;;4992989;28;20475;-81
2022/01/20 11:04:03;;;;;;;3.33;2.27;;;6.00;99.90;;;;;;4992473;28;20471;-81
2022/01/20 11:06:52;;;;;;;4.33;2.60;;;6.70;99.90;;;;;;4974797;28;20463;-81
2022/01/20 11:09:42;;;;;;;3.87;2.27;;;7.00;99.90;;;;;;4977059;28;20420;-81
2022/01/20 11:12:27;;;;;;;7.83;2.60;;;9.00;99.90;;;;;;4988816;28;20395;-82
2022/01/20 11:15:16;;;;;;;8.03;2.53;;;10.00;99.90;;;;;;4986208;28;20475;-81
2022/01/20 11:18:02;;;;;;;7.17;1.97;;;11.50;99.90;;;;;;4990245;28;20443;-81
2022/01/20 11:20:50;;;;;;;3.00;1.97;;;11.50;99.90;;;;;;4990195;28;20416;-81
2022/01/20 11:23:39;;;;;;;2.67;2.00;;;10.00;99.90;;;;;;4987076;28;20428;-82
2022/01/20 11:26:24;;;;;;;4.57;2.23;;;9.40;99.90;;;;;;4991769;28;20432;-81
2022/01/20 11:29:08;;;;;;;5.90;3.00;;;9.40;99.90;;;;;;4984319;28;20472;-78
2022/01/20 11:31:53;;;;;;;1.70;1.57;;;8.70;99.90;;;;;;4977331;28;20412;-79
2022/01/20 11:34:38;;;;;;;6.63;2.30;;;8.40;99.90;;;;;;4995987;28;20609;-79
2022/01/20 11:37:29;;;;;;;2.33;2.13;;;8.90;99.90;;;;;;4991474;28;20375;-80
2022/01/20 11:40:19;;;;;;;3.40;2.40;;;9.60;99.90;;;;;;5010451;28;20444;-81
2022/01/20 11:43:10;;;;;;;8.83;1.87;;;8.80;99.90;;;;;;5009017;28;20484;-79
2022/01/20 11:46:04;;;;;;;5.87;2.20;;;8.20;99.90;;;;;;5011700;28;20383;-80
2022/01/20 11:48:52;;;;;;;2.50;2.30;;;7.70;99.90;;;;;;5008612;28;20434;-80
2022/01/20 11:51:49;;;;;;;6.37;3.50;;;7.40;99.90;;;;;;5010932;28;20505;-79
2022/01/20 11:54:40;;;;;;;6.57;3.03;;;7.10;99.90;;;;;;5013563;28;20469;-80
2022/01/20 11:57:29;;;;;;;3.90;1.90;;;7.20;99.90;;;;;;5003673;28;20417;-80
2022/01/20 12:00:21;;;;;;;8.83;2.83;;;7.30;99.90;;;;;;5002967;28;20469;-80
2022/01/20 12:03:12;;;;;;;5.03;2.23;;;7.10;99.90;;;;;;5027664;28;20411;-80
2022/01/20 12:06:02;;;;;;;4.70;2.13;;;7.50;99.90;;;;;;4996809;28;20489;-80
2022/01/20 12:09:07;;;;;;;5.60;2.40;;;9.30;99.90;;;;;;4971414;28;20452;-81
2022/01/20 12:11:51;;;;;;;5.20;2.87;;;11.80;99.90;;;;;;4936451;28;20477;-81
2022/01/20 12:14:38;;;;;;;3.53;2.10;;;13.50;99.90;;;;;;4955866;28;20961;-81
2022/01/20 12:17:22;;;;;;;3.77;1.87;;;14.90;99.90;;;;;;4959877;28;20424;-82
2022/01/20 12:20:09;;;;;;;12.50;2.37;;;16.10;95.30;;;;;;4958326;28;20414;-80
2022/01/20 12:22:55;;;;;;;4.80;2.20;;;15.90;91.00;;;;;;4966405;28;20824;-79
2022/01/20 12:25:39;;;;;;;5.87;2.50;;;16.10;91.00;;;;;;4973878;28;20562;-80
2022/01/20 12:28:24;;;;;;;11.37;2.50;;;16.10;89.00;;;;;;4977632;28;20463;-80
2022/01/20 12:31:09;;;;;;;2.93;1.70;;;15.80;84.40;;;;;;4967816;28;20433;-79
2022/01/20 12:33:54;;;;;;;4.40;2.23;;;15.90;87.70;;;;;;4970273;28;20414;-78
2022/01/20 12:36:40;;;;;;;7.53;2.00;;;16.00;82.60;;;;;;4974199;28;20409;-81
2022/01/20 12:39:29;;;;;;;3.17;1.83;;;14.10;82.60;;;;;;4950883;28;20767;-79
2022/01/20 12:42:13;;;;;;;4.87;2.00;;;11.30;90.90;;;;;;5024351;28;20437;-80
2022/01/20 12:45:05;;;;;;;4.17;1.90;;;10.60;94.20;;;;;;5031628;28;20478;-80
2022/01/20 12:47:50;;;;;;;4.33;1.57;;;9.70;98.00;;;;;;5022515;28;20454;-79
2022/01/20 12:50:36;;;;;;;7.00;2.03;;;9.30;99.90;;;;;;5015324;28;20810;-79
2022/01/20 12:53:42;;;;;;;6.70;2.33;;;9.80;99.90;;;;;;5016285;28;20452;-79
2022/01/20 12:56:30;;;;;;;4.97;2.93;;;9.70;99.90;;;;;;5019682;28;20431;-81
2022/01/20 12:59:22;;;;;;;3.27;2.13;;;10.30;99.90;;;;;;5014096;28;20458;-79
2022/01/20 13:02:12;;;;;;;3.43;1.80;;;11.10;99.90;;;;;;5031800;28;20431;-79
2022/01/20 13:05:01;;;;;;;3.37;1.67;;;10.50;94.30;;;;;;5014480;28;20451;-78
2022/01/20 13:07:55;;;;;;;3.00;1.47;;;9.30;96.10;;;;;;5017648;28;20499;-78
2022/01/20 13:10:41;;;;;;;5.20;1.87;;;8.70;98.10;;;;;;5014666;28;20423;-79
2022/01/20 13:13:27;;;;;;;9.40;2.23;;;8.00;99.70;;;;;;5033779;28;20434;-79
2022/01/20 13:16:14;;;;;;;5.70;1.50;;;7.60;99.90;;;;;;5026550;28;20425;-78
2022/01/20 13:19:01;;;;;;;9.87;2.17;;;7.30;99.90;;;;;;5020330;28;20529;-78
2022/01/20 13:21:52;;;;;;;2.20;1.70;;;7.00;99.90;;;;;;5032098;28;20452;-79
2022/01/20 13:24:37;;;;;;;8.17;3.07;;;6.70;99.90;;;;;;5022943;28;20424;-81
2022/01/20 13:27:21;;;;;;;6.57;2.40;;;6.60;99.90;;;;;;5013991;28;20463;-81
2022/01/20 13:30:06;;;;;;;5.50;2.07;;;6.50;99.90;;;;;;5017093;28;20463;-81
2022/01/20 13:32:52;;;;;;;3.10;1.90;;;6.60;99.90;;;;;;4997991;28;20452;-79
2022/01/20 13:35:39;;;;;;;3.10;1.67;;;6.70;99.90;;;;;;5004507;28;20447;-81
2022/01/20 13:38:34;;;;;;;3.90;1.93;;;6.50;99.90;;;;;;5011862;28;20509;-80
2022/01/20 13:41:21;;;;;;;7.13;1.93;;;6.40;99.90;;;;;;5007070;28;20977;-78
2022/01/20 13:47:06;;;;;;;3.53;1.80;;;6.00;99.90;;;;;;5020993;28;20414;-81
2022/01/20 13:49:54;;;;;;;3.53;1.80;;;5.90;99.90;;;;;;5018635;28;20575;-79
2022/01/20 13:52:39;;;;;;;6.07;2.03;;;5.90;99.90;;;;;;5021829;28;20434;-79
2022/01/20 13:55:32;;;;;;;5.87;1.60;;;6.00;99.90;;;;;;5022366;28;20481;-79
2022/01/20 13:58:31;;;;;;;6.43;1.90;;;5.90;99.90;;;;;;5000880;28;20442;-79
2022/01/20 14:01:15;;;;;;;4.90;1.80;;;5.80;99.90;;;;;;4992161;28;20438;-79
2022/01/20 14:04:04;;;;;;;2.17;1.30;;;5.60;99.90;;;;;;5007475;28;20414;-80
2022/01/20 14:06:49;;;;;;;1.80;1.60;;;5.60;99.90;;;;;;4965114;28;20415;-79
2022/01/20 14:09:35;;;;;;;8.30;1.50;;;5.50;99.90;;;;;;5000171;28;20435;-80
2022/01/20 14:12:19;;;;;;;1.40;1.30;;;5.20;99.90;;;;;;4992463;28;20407;-79
2022/01/20 14:15:05;;;;;;;2.10;1.90;;;5.20;99.90;;;;;;5003433;28;20418;-82
2022/01/20 14:17:52;;;;;;;3.63;2.07;;;5.20;99.90;;;;;;4984122;28;20437;-79
2022/01/20 14:20:39;;;;;;;5.80;1.80;;;5.40;99.90;;;;;;4986628;28;20467;-79
2022/01/20 14:23:24;;;;;;;3.20;2.00;;;5.30;99.90;;;;;;5002094;28;20461;-82
2022/01/20 14:26:12;;;;;;;1.43;1.33;;;5.20;99.90;;;;;;4982538;28;20390;-82
2022/01/20 14:28:58;;;;;;;4.93;1.30;;;5.00;99.90;;;;;;4986343;28;20434;-81
2022/01/20 14:31:42;;;;;;;1.87;1.63;;;4.90;99.90;;;;;;4982639;28;20491;-81
2022/01/20 14:34:27;;;;;;;4.77;1.83;;;4.90;99.90;;;;;;4999401;28;20488;-81
2022/01/20 14:37:12;;;;;;;2.00;1.70;;;4.90;99.90;;;;;;4997423;28;20454;-81
2022/01/20 14:39:57;;;;;;;1.80;1.60;;;4.90;99.90;;;;;;4982778;28;20453;-83
2022/01/20 14:42:43;;;;;;;3.03;1.80;;;4.80;99.90;;;;;;4999642;28;20426;-83
2022/01/20 14:45:27;;;;;;;6.80;1.70;;;4.80;99.90;;;;;;4988930;28;20432;-82
2022/01/20 14:48:14;;;;;;;2.63;1.90;;;4.80;99.90;;;;;;4985622;28;20515;-82
2022/01/20 14:50:59;;;;;;;4.30;2.20;;;4.70;99.90;;;;;;4989095;28;20950;-79
2022/01/20 14:53:44;;;;;;;3.50;2.50;;;4.60;99.90;;;;;;5001474;28;20419;-80
2022/01/20 14:56:29;;;;;;;4.00;1.57;;;4.60;99.90;;;;;;4972150;28;20439;-78
2022/01/20 14:59:13;;;;;;;3.30;1.87;;;4.60;99.90;;;;;;4988358;28;20407;-79
2022/01/20 15:01:58;;;;;;;1.60;1.50;;;4.60;99.90;;;;;;4984382;28;20435;-78
2022/01/20 15:04:43;;;;;;;4.13;1.77;;;4.60;99.90;;;;;;4958643;28;20453;-78
2022/01/20 15:07:28;;;;;;;2.10;1.73;;;4.60;99.90;;;;;;4986801;28;20496;-79
2022/01/20 15:10:15;;;;;;;4.60;1.90;;;4.60;99.90;;;;;;5003573;28;20407;-80
2022/01/20 15:13:01;;;;;;;8.33;1.67;;;4.60;99.90;;;;;;4972766;28;20475;-79
2022/01/20 15:15:45;;;;;;;1.90;1.30;;;4.60;99.90;;;;;;4988321;28;20446;-79
2022/01/20 15:18:30;;;;;;;2.57;1.40;;;4.40;99.90;;;;;;5000994;28;20442;-79
2022/01/20 15:21:16;;;;;;;2.33;1.60;;;4.30;99.90;;;;;;4990456;28;20420;-81
2022/01/20 15:24:00;;;;;;;3.77;1.80;;;4.20;99.90;;;;;;5002564;28;20499;-81
2022/01/20 15:26:45;;;;;;;3.87;1.43;;;4.20;99.90;;;;;;4994259;28;20431;-81
2022/01/20 15:29:29;;;;;;;2.00;1.50;;;4.20;99.90;;;;;;4982238;28;20511;-80
2022/01/20 15:32:14;;;;;;;1.87;1.53;;;4.10;99.90;;;;;;4991033;28;20402;-80
2022/01/20 15:34:59;;;;;;;2.83;1.80;;;4.10;99.90;;;;;;4994439;28;20624;-80